sensor_id;sensor_type;location;lat;lon;timestamp;P1;durP1;ratioP1;P2;durP2;ratioP2
7899;SDS011;3995;50.856;4.404;2024-03-25T00:00:20;3.30;;;2.07;;
7899;SDS011;3995;50.856;4.404;2024-03-25T00:02:51;5.57;;;2.80;;
7899;SDS011;3995;50.856;4.404;2024-03-25T00:05:17;2.63;;;2.43;;
7899;SDS011;3995;50.856;4.404;2024-03-25T00:07:47;5.47;;;3.70;;
7899;SDS011;3995;50.856;4.404;2024-03-25T00:10:14;3.28;;;2.88;;
7899;SDS011;3995;50.856;4.404;2024-03-25T00:12:41;4.30;;;3.60;;
7899;SDS011;3995;50.856;4.404;2024-03-25T00:15:07;5.60;;;3.10;;
7899;SDS011;3995;50.856;4.404;2024-03-25T00:17:34;3.90;;;2.43;;
7899;SDS011;3995;50.856;4.404;2024-03-25T00:20:02;4.07;;;2.50;;
7899;SDS011;3995;50.856;4.404;2024-03-25T00:22:31;4.00;;;2.60;;
7899;SDS011;3995;50.856;4.404;2024-03-25T00:24:57;8.53;;;2.70;;
7899;SDS011;3995;50.856;4.404;2024-03-25T00:27:24;4.03;;;2.40;;
7899;SDS011;3995;50.856;4.404;2024-03-25T00:29:49;3.63;;;2.30;;
7899;SDS011;3995;50.856;4.404;2024-03-25T00:32:16;7.45;;;2.85;;
7899;SDS011;3995;50.856;4.404;2024-03-25T00:34:42;5.00;;;3.30;;
7899;SDS011;3995;50.856;4.404;2024-03-25T00:37:11;4.03;;;3.00;;
7899;SDS011;3995;50.856;4.404;2024-03-25T00:39:37;4.60;;;2.90;;
7899;SDS011;3995;50.856;4.404;2024-03-25T00:42:04;5.53;;;3.00;;
7899;SDS011;3995;50.856;4.404;2024-03-25T00:44:30;4.47;;;2.90;;
7899;SDS011;3995;50.856;4.404;2024-03-25T00:46:56;7.28;;;3.10;;
7899;SDS011;3995;50.856;4.404;2024-03-25T00:49:23;3.70;;;2.40;;
7899;SDS011;3995;50.856;4.404;2024-03-25T00:51:49;5.00;;;2.60;;
7899;SDS011;3995;50.856;4.404;2024-03-25T00:54:17;5.00;;;3.10;;
7899;SDS011;3995;50.856;4.404;2024-03-25T00:56:44;4.05;;;2.30;;
7899;SDS011;3995;50.856;4.404;2024-03-25T00:59:11;4.60;;;2.47;;
7899;SDS011;3995;50.856;4.404;2024-03-25T01:01:38;4.05;;;2.05;;
7899;SDS011;3995;50.856;4.404;2024-03-25T01:04:04;3.97;;;2.23;;
7899;SDS011;3995;50.856;4.404;2024-03-25T01:06:31;3.00;;;2.17;;
7899;SDS011;3995;50.856;4.404;2024-03-25T01:08:58;5.07;;;2.23;;
7899;SDS011;3995;50.856;4.404;2024-03-25T01:11:27;3.28;;;2.35;;
7899;SDS011;3995;50.856;4.404;2024-03-25T01:13:53;5.53;;;2.50;;
7899;SDS011;3995;50.856;4.404;2024-03-25T01:16:19;5.55;;;2.50;;
7899;SDS011;3995;50.856;4.404;2024-03-25T01:18:45;3.40;;;2.60;;
7899;SDS011;3995;50.856;4.404;2024-03-25T01:21:13;4.03;;;2.17;;
7899;SDS011;3995;50.856;4.404;2024-03-25T01:23:40;3.10;;;2.47;;
7899;SDS011;3995;50.856;4.404;2024-03-25T01:26:06;4.53;;;2.80;;
7899;SDS011;3995;50.856;4.404;2024-03-25T01:28:34;3.67;;;2.22;;
7899;SDS011;3995;50.856;4.404;2024-03-25T01:31:01;5.13;;;2.85;;
7899;SDS011;3995;50.856;4.404;2024-03-25T01:33:27;3.03;;;2.50;;
7899;SDS011;3995;50.856;4.404;2024-03-25T01:35:55;4.10;;;2.60;;
7899;SDS011;3995;50.856;4.404;2024-03-25T01:38:21;4.90;;;2.67;;
7899;SDS011;3995;50.856;4.404;2024-03-25T01:40:48;5.60;;;3.03;;
7899;SDS011;3995;50.856;4.404;2024-03-25T01:43:14;4.70;;;2.33;;
7899;SDS011;3995;50.856;4.404;2024-03-25T01:45:43;9.23;;;2.93;;
7899;SDS011;3995;50.856;4.404;2024-03-25T01:48:09;6.53;;;2.83;;
7899;SDS011;3995;50.856;4.404;2024-03-25T01:50:39;4.30;;;2.63;;
7899;SDS011;3995;50.856;4.404;2024-03-25T01:53:08;5.20;;;3.30;;
7899;SDS011;3995;50.856;4.404;2024-03-25T01:55:37;6.07;;;3.13;;
7899;SDS011;3995;50.856;4.404;2024-03-25T01:58:04;7.05;;;3.85;;
7899;SDS011;3995;50.856;4.404;2024-03-25T02:00:31;5.50;;;3.23;;
7899;SDS011;3995;50.856;4.404;2024-03-25T02:03:00;6.43;;;3.25;;
7899;SDS011;3995;50.856;4.404;2024-03-25T02:05:27;6.03;;;2.95;;
7899;SDS011;3995;50.856;4.404;2024-03-25T02:07:53;4.40;;;2.90;;
7899;SDS011;3995;50.856;4.404;2024-03-25T02:10:21;8.70;;;4.03;;
7899;SDS011;3995;50.856;4.404;2024-03-25T02:12:47;8.50;;;3.93;;
7899;SDS011;3995;50.856;4.404;2024-03-25T02:15:15;10.75;;;4.35;;
7899;SDS011;3995;50.856;4.404;2024-03-25T02:17:41;7.50;;;3.97;;
7899;SDS011;3995;50.856;4.404;2024-03-25T02:20:10;6.60;;;3.88;;
7899;SDS011;3995;50.856;4.404;2024-03-25T02:22:40;5.80;;;4.00;;
7899;SDS011;3995;50.856;4.404;2024-03-25T02:25:08;5.70;;;3.40;;
7899;SDS011;3995;50.856;4.404;2024-03-25T02:27:36;5.85;;;3.60;;
7899;SDS011;3995;50.856;4.404;2024-03-25T02:30:04;7.53;;;4.00;;
7899;SDS011;3995;50.856;4.404;2024-03-25T02:32:32;8.63;;;3.73;;
7899;SDS011;3995;50.856;4.404;2024-03-25T02:34:59;6.53;;;3.20;;
7899;SDS011;3995;50.856;4.404;2024-03-25T02:37:27;5.53;;;3.40;;
7899;SDS011;3995;50.856;4.404;2024-03-25T02:39:55;7.47;;;4.03;;
7899;SDS011;3995;50.856;4.404;2024-03-25T02:42:24;8.55;;;4.75;;
7899;SDS011;3995;50.856;4.404;2024-03-25T02:44:53;11.05;;;4.13;;
7899;SDS011;3995;50.856;4.404;2024-03-25T02:47:19;6.97;;;3.73;;
7899;SDS011;3995;50.856;4.404;2024-03-25T02:49:46;11.63;;;4.77;;
7899;SDS011;3995;50.856;4.404;2024-03-25T02:52:12;10.27;;;4.77;;
7899;SDS011;3995;50.856;4.404;2024-03-25T02:54:39;13.10;;;5.55;;
7899;SDS011;3995;50.856;4.404;2024-03-25T02:57:05;11.17;;;4.80;;
7899;SDS011;3995;50.856;4.404;2024-03-25T02:59:32;9.63;;;4.38;;
7899;SDS011;3995;50.856;4.404;2024-03-25T03:02:00;10.77;;;4.97;;
7899;SDS011;3995;50.856;4.404;2024-03-25T03:04:27;17.52;;;5.50;;
7899;SDS011;3995;50.856;4.404;2024-03-25T03:06:52;13.50;;;5.43;;
7899;SDS011;3995;50.856;4.404;2024-03-25T03:09:19;15.02;;;6.00;;
7899;SDS011;3995;50.856;4.404;2024-03-25T03:11:45;11.80;;;5.27;;
7899;SDS011;3995;50.856;4.404;2024-03-25T03:14:12;23.73;;;5.97;;
7899;SDS011;3995;50.856;4.404;2024-03-25T03:16:38;15.63;;;5.87;;
7899;SDS011;3995;50.856;4.404;2024-03-25T03:19:07;19.40;;;7.47;;
7899;SDS011;3995;50.856;4.404;2024-03-25T03:21:33;15.20;;;7.00;;
7899;SDS011;3995;50.856;4.404;2024-03-25T03:24:01;13.65;;;6.78;;
7899;SDS011;3995;50.856;4.404;2024-03-25T03:26:27;22.65;;;7.50;;
7899;SDS011;3995;50.856;4.404;2024-03-25T03:28:54;10.63;;;5.77;;
7899;SDS011;3995;50.856;4.404;2024-03-25T03:31:20;19.77;;;6.32;;
7899;SDS011;3995;50.856;4.404;2024-03-25T03:33:47;11.02;;;5.60;;
7899;SDS011;3995;50.856;4.404;2024-03-25T03:36:15;18.80;;;6.40;;
7899;SDS011;3995;50.856;4.404;2024-03-25T03:38:43;10.60;;;5.78;;
7899;SDS011;3995;50.856;4.404;2024-03-25T03:41:08;12.30;;;5.83;;
7899;SDS011;3995;50.856;4.404;2024-03-25T03:43:36;14.20;;;6.68;;
7899;SDS011;3995;50.856;4.404;2024-03-25T03:46:02;12.00;;;7.00;;
7899;SDS011;3995;50.856;4.404;2024-03-25T03:48:29;17.25;;;8.00;;
7899;SDS011;3995;50.856;4.404;2024-03-25T03:50:56;12.80;;;6.23;;
7899;SDS011;3995;50.856;4.404;2024-03-25T03:53:24;17.95;;;7.65;;
7899;SDS011;3995;50.856;4.404;2024-03-25T03:55:53;14.93;;;7.83;;
7899;SDS011;3995;50.856;4.404;2024-03-25T03:58:21;19.33;;;8.27;;
7899;SDS011;3995;50.856;4.404;2024-03-25T04:00:46;15.30;;;7.87;;
7899;SDS011;3995;50.856;4.404;2024-03-25T04:03:13;12.97;;;7.17;;
7899;SDS011;3995;50.856;4.404;2024-03-25T04:05:40;15.32;;;8.18;;
7899;SDS011;3995;50.856;4.404;2024-03-25T04:08:07;14.77;;;8.23;;
7899;SDS011;3995;50.856;4.404;2024-03-25T04:10:35;14.65;;;8.23;;
7899;SDS011;3995;50.856;4.404;2024-03-25T04:13:01;12.97;;;8.30;;
7899;SDS011;3995;50.856;4.404;2024-03-25T04:15:28;13.00;;;8.10;;
7899;SDS011;3995;50.856;4.404;2024-03-25T04:17:57;13.33;;;8.00;;
7899;SDS011;3995;50.856;4.404;2024-03-25T04:20:24;18.80;;;9.73;;
7899;SDS011;3995;50.856;4.404;2024-03-25T04:22:51;14.68;;;8.90;;
7899;SDS011;3995;50.856;4.404;2024-03-25T04:25:18;15.43;;;8.30;;
7899;SDS011;3995;50.856;4.404;2024-03-25T04:27:45;16.50;;;10.70;;
7899;SDS011;3995;50.856;4.404;2024-03-25T04:30:13;16.30;;;8.85;;
7899;SDS011;3995;50.856;4.404;2024-03-25T04:32:40;16.85;;;10.20;;
7899;SDS011;3995;50.856;4.404;2024-03-25T04:35:06;13.33;;;8.73;;
7899;SDS011;3995;50.856;4.404;2024-03-25T04:37:34;22.93;;;10.70;;
7899;SDS011;3995;50.856;4.404;2024-03-25T04:40:01;15.88;;;9.65;;
7899;SDS011;3995;50.856;4.404;2024-03-25T04:42:27;18.23;;;11.45;;
7899;SDS011;3995;50.856;4.404;2024-03-25T04:44:55;14.37;;;9.17;;
7899;SDS011;3995;50.856;4.404;2024-03-25T04:47:21;16.35;;;9.40;;
7899;SDS011;3995;50.856;4.404;2024-03-25T04:49:47;18.10;;;11.57;;
7899;SDS011;3995;50.856;4.404;2024-03-25T04:52:13;18.70;;;11.90;;
7899;SDS011;3995;50.856;4.404;2024-03-25T04:54:40;25.27;;;10.83;;
7899;SDS011;3995;50.856;4.404;2024-03-25T04:57:06;18.50;;;9.10;;
7899;SDS011;3995;50.856;4.404;2024-03-25T04:59:32;18.60;;;10.77;;
7899;SDS011;3995;50.856;4.404;2024-03-25T05:02:00;15.33;;;9.80;;
7899;SDS011;3995;50.856;4.404;2024-03-25T05:04:26;21.90;;;10.55;;
7899;SDS011;3995;50.856;4.404;2024-03-25T05:06:52;16.00;;;10.05;;
7899;SDS011;3995;50.856;4.404;2024-03-25T05:09:18;12.40;;;9.20;;
7899;SDS011;3995;50.856;4.404;2024-03-25T05:11:44;15.02;;;9.20;;
7899;SDS011;3995;50.856;4.404;2024-03-25T05:14:10;15.80;;;9.70;;
7899;SDS011;3995;50.856;4.404;2024-03-25T05:16:36;14.03;;;9.70;;
7899;SDS011;3995;50.856;4.404;2024-03-25T05:19:04;14.90;;;10.02;;
7899;SDS011;3995;50.856;4.404;2024-03-25T05:21:30;12.60;;;9.30;;
7899;SDS011;3995;50.856;4.404;2024-03-25T05:23:56;16.35;;;9.98;;
7899;SDS011;3995;50.856;4.404;2024-03-25T05:26:22;16.30;;;9.77;;
7899;SDS011;3995;50.856;4.404;2024-03-25T05:28:51;25.05;;;15.68;;
7899;SDS011;3995;50.856;4.404;2024-03-25T05:31:18;19.15;;;13.43;;
7899;SDS011;3995;50.856;4.404;2024-03-25T05:33:44;20.20;;;12.07;;
7899;SDS011;3995;50.856;4.404;2024-03-25T05:36:11;19.15;;;12.57;;
7899;SDS011;3995;50.856;4.404;2024-03-25T05:38:37;17.08;;;12.30;;
7899;SDS011;3995;50.856;4.404;2024-03-25T05:41:03;16.83;;;12.20;;
7899;SDS011;3995;50.856;4.404;2024-03-25T05:43:29;24.55;;;14.48;;
7899;SDS011;3995;50.856;4.404;2024-03-25T05:45:56;19.33;;;12.60;;
7899;SDS011;3995;50.856;4.404;2024-03-25T05:48:23;19.80;;;12.40;;
7899;SDS011;3995;50.856;4.404;2024-03-25T05:50:57;24.87;;;13.70;;
7899;SDS011;3995;50.856;4.404;2024-03-25T05:53:25;22.35;;;13.80;;
7899;SDS011;3995;50.856;4.404;2024-03-25T05:55:51;24.25;;;13.93;;
7899;SDS011;3995;50.856;4.404;2024-03-25T05:58:17;24.67;;;12.37;;
7899;SDS011;3995;50.856;4.404;2024-03-25T06:00:45;24.63;;;13.32;;
7899;SDS011;3995;50.856;4.404;2024-03-25T06:03:12;20.33;;;13.18;;
7899;SDS011;3995;50.856;4.404;2024-03-25T06:05:38;22.63;;;11.30;;
7899;SDS011;3995;50.856;4.404;2024-03-25T06:08:05;20.88;;;13.18;;
7899;SDS011;3995;50.856;4.404;2024-03-25T06:10:36;19.55;;;11.95;;
7899;SDS011;3995;50.856;4.404;2024-03-25T06:13:02;24.55;;;12.35;;
7899;SDS011;3995;50.856;4.404;2024-03-25T06:15:28;21.17;;;11.88;;
7899;SDS011;3995;50.856;4.404;2024-03-25T06:17:54;21.33;;;12.77;;
7899;SDS011;3995;50.856;4.404;2024-03-25T06:20:20;24.83;;;12.48;;
7899;SDS011;3995;50.856;4.404;2024-03-25T06:22:46;23.37;;;11.80;;
7899;SDS011;3995;50.856;4.404;2024-03-25T06:25:12;25.40;;;11.53;;
7899;SDS011;3995;50.856;4.404;2024-03-25T06:27:40;23.27;;;12.07;;
7899;SDS011;3995;50.856;4.404;2024-03-25T06:30:07;15.10;;;10.10;;
7899;SDS011;3995;50.856;4.404;2024-03-25T06:32:51;26.38;;;11.50;;
7899;SDS011;3995;50.856;4.404;2024-03-25T06:35:36;17.23;;;10.73;;
7899;SDS011;3995;50.856;4.404;2024-03-25T06:38:02;16.47;;;10.50;;
7899;SDS011;3995;50.856;4.404;2024-03-25T06:40:28;16.75;;;8.90;;
7899;SDS011;3995;50.856;4.404;2024-03-25T06:42:55;21.27;;;9.53;;
7899;SDS011;3995;50.856;4.404;2024-03-25T06:45:21;18.60;;;8.48;;
7899;SDS011;3995;50.856;4.404;2024-03-25T06:47:47;12.40;;;7.53;;
7899;SDS011;3995;50.856;4.404;2024-03-25T06:50:13;16.00;;;8.10;;
7899;SDS011;3995;50.856;4.404;2024-03-25T06:52:40;14.77;;;7.88;;
7899;SDS011;3995;50.856;4.404;2024-03-25T06:55:06;18.17;;;8.07;;
7899;SDS011;3995;50.856;4.404;2024-03-25T06:57:33;21.42;;;8.50;;
7899;SDS011;3995;50.856;4.404;2024-03-25T07:00:00;22.67;;;9.13;;
7899;SDS011;3995;50.856;4.404;2024-03-25T07:02:26;12.82;;;7.68;;
7899;SDS011;3995;50.856;4.404;2024-03-25T07:04:52;16.83;;;8.93;;
7899;SDS011;3995;50.856;4.404;2024-03-25T07:07:18;13.23;;;7.20;;
7899;SDS011;3995;50.856;4.404;2024-03-25T07:09:44;19.58;;;7.97;;
7899;SDS011;3995;50.856;4.404;2024-03-25T07:12:10;20.63;;;7.80;;
7899;SDS011;3995;50.856;4.404;2024-03-25T07:14:36;9.52;;;6.78;;
7899;SDS011;3995;50.856;4.404;2024-03-25T07:17:04;14.97;;;7.80;;
7899;SDS011;3995;50.856;4.404;2024-03-25T07:19:30;18.55;;;7.78;;
7899;SDS011;3995;50.856;4.404;2024-03-25T07:21:56;12.60;;;7.00;;
7899;SDS011;3995;50.856;4.404;2024-03-25T07:24:22;19.30;;;8.03;;
7899;SDS011;3995;50.856;4.404;2024-03-25T07:26:48;23.40;;;7.27;;
7899;SDS011;3995;50.856;4.404;2024-03-25T07:29:14;10.88;;;5.97;;
7899;SDS011;3995;50.856;4.404;2024-03-25T07:31:39;10.77;;;6.33;;
7899;SDS011;3995;50.856;4.404;2024-03-25T07:34:07;14.40;;;6.20;;
7899;SDS011;3995;50.856;4.404;2024-03-25T07:36:33;14.87;;;7.17;;
7899;SDS011;3995;50.856;4.404;2024-03-25T07:38:59;14.90;;;6.20;;
7899;SDS011;3995;50.856;4.404;2024-03-25T07:41:25;14.60;;;5.97;;
7899;SDS011;3995;50.856;4.404;2024-03-25T07:43:51;13.05;;;6.78;;
7899;SDS011;3995;50.856;4.404;2024-03-25T07:46:17;16.10;;;6.80;;
7899;SDS011;3995;50.856;4.404;2024-03-25T07:48:43;14.47;;;6.57;;
7899;SDS011;3995;50.856;4.404;2024-03-25T07:51:11;11.90;;;6.07;;
7899;SDS011;3995;50.856;4.404;2024-03-25T07:53:37;16.90;;;6.50;;
7899;SDS011;3995;50.856;4.404;2024-03-25T07:56:03;13.20;;;6.57;;
7899;SDS011;3995;50.856;4.404;2024-03-25T07:58:30;12.82;;;5.82;;
7899;SDS011;3995;50.856;4.404;2024-03-25T08:00:56;14.48;;;6.82;;
7899;SDS011;3995;50.856;4.404;2024-03-25T08:03:22;16.77;;;6.27;;
7899;SDS011;3995;50.856;4.404;2024-03-25T08:05:48;11.45;;;5.72;;
7899;SDS011;3995;50.856;4.404;2024-03-25T08:08:15;12.03;;;6.30;;
7899;SDS011;3995;50.856;4.404;2024-03-25T08:10:42;10.13;;;5.00;;
7899;SDS011;3995;50.856;4.404;2024-03-25T08:13:08;13.15;;;6.00;;
7899;SDS011;3995;50.856;4.404;2024-03-25T08:15:34;15.27;;;6.33;;
7899;SDS011;3995;50.856;4.404;2024-03-25T08:18:00;13.17;;;6.00;;
7899;SDS011;3995;50.856;4.404;2024-03-25T08:20:26;15.30;;;7.70;;
7899;SDS011;3995;50.856;4.404;2024-03-25T08:22:52;10.40;;;6.43;;
7899;SDS011;3995;50.856;4.404;2024-03-25T08:25:19;15.37;;;6.27;;
7899;SDS011;3995;50.856;4.404;2024-03-25T08:27:45;10.80;;;6.22;;
7899;SDS011;3995;50.856;4.404;2024-03-25T08:30:11;10.97;;;6.50;;
7899;SDS011;3995;50.856;4.404;2024-03-25T08:32:38;19.40;;;6.55;;
7899;SDS011;3995;50.856;4.404;2024-03-25T08:35:06;12.60;;;6.22;;
7899;SDS011;3995;50.856;4.404;2024-03-25T08:37:32;17.98;;;6.30;;
7899;SDS011;3995;50.856;4.404;2024-03-25T08:39:58;12.27;;;5.67;;
7899;SDS011;3995;50.856;4.404;2024-03-25T08:42:26;8.43;;;5.70;;
7899;SDS011;3995;50.856;4.404;2024-03-25T08:44:52;12.13;;;6.28;;
7899;SDS011;3995;50.856;4.404;2024-03-25T08:47:18;11.50;;;5.20;;
7899;SDS011;3995;50.856;4.404;2024-03-25T08:49:44;9.87;;;5.13;;
7899;SDS011;3995;50.856;4.404;2024-03-25T08:52:10;12.87;;;5.73;;
7899;SDS011;3995;50.856;4.404;2024-03-25T08:54:36;9.20;;;5.03;;
7899;SDS011;3995;50.856;4.404;2024-03-25T08:57:02;11.83;;;5.30;;
7899;SDS011;3995;50.856;4.404;2024-03-25T08:59:30;15.40;;;6.40;;
7899;SDS011;3995;50.856;4.404;2024-03-25T09:01:56;12.48;;;5.30;;
7899;SDS011;3995;50.856;4.404;2024-03-25T09:04:22;13.20;;;5.90;;
7899;SDS011;3995;50.856;4.404;2024-03-25T09:06:48;8.23;;;4.60;;
7899;SDS011;3995;50.856;4.404;2024-03-25T09:09:14;7.13;;;4.97;;
7899;SDS011;3995;50.856;4.404;2024-03-25T09:11:58;14.20;;;6.25;;
7899;SDS011;3995;50.856;4.404;2024-03-25T09:14:24;8.90;;;5.20;;
7899;SDS011;3995;50.856;4.404;2024-03-25T09:16:51;10.55;;;5.68;;
7899;SDS011;3995;50.856;4.404;2024-03-25T09:19:17;13.20;;;5.57;;
7899;SDS011;3995;50.856;4.404;2024-03-25T09:21:43;20.07;;;6.40;;
7899;SDS011;3995;50.856;4.404;2024-03-25T09:24:09;16.80;;;6.57;;
7899;SDS011;3995;50.856;4.404;2024-03-25T09:26:35;9.00;;;5.60;;
7899;SDS011;3995;50.856;4.404;2024-03-25T09:29:01;9.17;;;5.50;;
7899;SDS011;3995;50.856;4.404;2024-03-25T09:31:27;23.48;;;7.13;;
7899;SDS011;3995;50.856;4.404;2024-03-25T09:33:55;13.53;;;6.43;;
7899;SDS011;3995;50.856;4.404;2024-03-25T09:36:21;13.18;;;4.80;;
7899;SDS011;3995;50.856;4.404;2024-03-25T09:38:47;11.37;;;5.00;;
7899;SDS011;3995;50.856;4.404;2024-03-25T09:41:13;8.63;;;4.83;;
7899;SDS011;3995;50.856;4.404;2024-03-25T09:43:41;10.40;;;4.50;;
7899;SDS011;3995;50.856;4.404;2024-03-25T09:46:09;13.23;;;5.43;;
7899;SDS011;3995;50.856;4.404;2024-03-25T09:48:35;11.23;;;4.73;;
7899;SDS011;3995;50.856;4.404;2024-03-25T09:51:04;10.48;;;4.70;;
7899;SDS011;3995;50.856;4.404;2024-03-25T09:53:30;11.10;;;4.60;;
7899;SDS011;3995;50.856;4.404;2024-03-25T09:55:56;9.33;;;4.50;;
7899;SDS011;3995;50.856;4.404;2024-03-25T09:58:22;11.20;;;5.10;;
7899;SDS011;3995;50.856;4.404;2024-03-25T10:00:50;9.40;;;4.80;;
7899;SDS011;3995;50.856;4.404;2024-03-25T10:03:16;9.75;;;4.50;;
7899;SDS011;3995;50.856;4.404;2024-03-25T10:05:42;10.03;;;4.90;;
7899;SDS011;3995;50.856;4.404;2024-03-25T10:08:10;18.85;;;5.78;;
7899;SDS011;3995;50.856;4.404;2024-03-25T10:10:36;10.93;;;4.60;;
7899;SDS011;3995;50.856;4.404;2024-03-25T10:13:02;10.73;;;5.72;;
7899;SDS011;3995;50.856;4.404;2024-03-25T10:15:29;10.90;;;4.20;;
7899;SDS011;3995;50.856;4.404;2024-03-25T10:17:55;6.80;;;4.70;;
7899;SDS011;3995;50.856;4.404;2024-03-25T10:20:21;7.03;;;3.93;;
7899;SDS011;3995;50.856;4.404;2024-03-25T10:22:47;8.40;;;5.00;;
7899;SDS011;3995;50.856;4.404;2024-03-25T10:25:22;6.83;;;3.43;;
7899;SDS011;3995;50.856;4.404;2024-03-25T10:27:52;9.73;;;3.80;;
7899;SDS011;3995;50.856;4.404;2024-03-25T10:30:19;8.00;;;3.13;;
7899;SDS011;3995;50.856;4.404;2024-03-25T10:32:45;17.33;;;4.20;;
7899;SDS011;3995;50.856;4.404;2024-03-25T10:35:22;7.80;;;3.63;;
7899;SDS011;3995;50.856;4.404;2024-03-25T10:37:50;8.03;;;3.40;;
7899;SDS011;3995;50.856;4.404;2024-03-25T10:40:19;8.47;;;3.47;;
7899;SDS011;3995;50.856;4.404;2024-03-25T10:42:47;7.17;;;3.43;;
7899;SDS011;3995;50.856;4.404;2024-03-25T10:45:13;6.53;;;3.03;;
7899;SDS011;3995;50.856;4.404;2024-03-25T10:47:39;6.43;;;2.90;;
7899;SDS011;3995;50.856;4.404;2024-03-25T10:50:07;9.97;;;3.57;;
7899;SDS011;3995;50.856;4.404;2024-03-25T10:52:37;7.60;;;3.33;;
7899;SDS011;3995;50.856;4.404;2024-03-25T10:55:04;6.50;;;3.70;;
7899;SDS011;3995;50.856;4.404;2024-03-25T10:57:32;5.40;;;3.30;;
7899;SDS011;3995;50.856;4.404;2024-03-25T11:00:00;6.30;;;3.27;;
7899;SDS011;3995;50.856;4.404;2024-03-25T11:02:28;9.33;;;4.13;;
7899;SDS011;3995;50.856;4.404;2024-03-25T11:04:55;9.60;;;3.87;;
7899;SDS011;3995;50.856;4.404;2024-03-25T11:07:27;6.30;;;3.40;;
7899;SDS011;3995;50.856;4.404;2024-03-25T11:10:02;8.20;;;4.20;;
7899;SDS011;3995;50.856;4.404;2024-03-25T11:12:31;8.03;;;2.50;;
7899;SDS011;3995;50.856;4.404;2024-03-25T11:15:01;6.78;;;3.20;;
7899;SDS011;3995;50.856;4.404;2024-03-25T11:17:28;3.30;;;2.60;;
7899;SDS011;3995;50.856;4.404;2024-03-25T11:19:54;9.50;;;3.10;;
7899;SDS011;3995;50.856;4.404;2024-03-25T11:22:32;10.47;;;4.13;;
7899;SDS011;3995;50.856;4.404;2024-03-25T11:25:04;11.23;;;4.30;;
7899;SDS011;3995;50.856;4.404;2024-03-25T11:27:32;3.40;;;2.77;;
7899;SDS011;3995;50.856;4.404;2024-03-25T11:29:59;4.27;;;1.90;;
7899;SDS011;3995;50.856;4.404;2024-03-25T11:32:26;7.73;;;2.70;;
7899;SDS011;3995;50.856;4.404;2024-03-25T11:34:52;3.73;;;2.30;;
7899;SDS011;3995;50.856;4.404;2024-03-25T11:37:19;4.13;;;2.00;;
7899;SDS011;3995;50.856;4.404;2024-03-25T11:39:45;5.80;;;2.40;;
7899;SDS011;3995;50.856;4.404;2024-03-25T11:42:12;7.20;;;2.20;;
7899;SDS011;3995;50.856;4.404;2024-03-25T11:44:38;6.07;;;2.80;;
7899;SDS011;3995;50.856;4.404;2024-03-25T11:47:06;7.30;;;2.50;;
7899;SDS011;3995;50.856;4.404;2024-03-25T11:49:36;7.17;;;2.60;;
7899;SDS011;3995;50.856;4.404;2024-03-25T11:52:06;4.47;;;2.20;;
7899;SDS011;3995;50.856;4.404;2024-03-25T11:54:32;6.83;;;2.53;;
7899;SDS011;3995;50.856;4.404;2024-03-25T11:56:58;5.77;;;2.10;;
7899;SDS011;3995;50.856;4.404;2024-03-25T11:59:24;2.53;;;1.70;;
7899;SDS011;3995;50.856;4.404;2024-03-25T12:01:50;4.70;;;2.30;;
7899;SDS011;3995;50.856;4.404;2024-03-25T12:04:16;5.67;;;3.20;;
7899;SDS011;3995;50.856;4.404;2024-03-25T12:06:45;5.87;;;2.90;;
7899;SDS011;3995;50.856;4.404;2024-03-25T12:09:11;3.17;;;1.93;;
7899;SDS011;3995;50.856;4.404;2024-03-25T12:11:55;4.60;;;2.10;;
7899;SDS011;3995;50.856;4.404;2024-03-25T12:14:21;5.47;;;2.00;;
7899;SDS011;3995;50.856;4.404;2024-03-25T12:16:47;7.33;;;2.30;;
7899;SDS011;3995;50.856;4.404;2024-03-25T12:19:14;4.40;;;2.10;;
7899;SDS011;3995;50.856;4.404;2024-03-25T12:21:40;3.67;;;2.33;;
7899;SDS011;3995;50.856;4.404;2024-03-25T12:24:08;5.20;;;2.30;;
7899;SDS011;3995;50.856;4.404;2024-03-25T12:26:34;6.10;;;2.87;;
7899;SDS011;3995;50.856;4.404;2024-03-25T12:29:00;4.30;;;2.30;;
7899;SDS011;3995;50.856;4.404;2024-03-25T12:31:26;7.83;;;2.10;;
7899;SDS011;3995;50.856;4.404;2024-03-25T12:33:52;3.90;;;2.03;;
7899;SDS011;3995;50.856;4.404;2024-03-25T12:36:19;2.77;;;1.67;;
7899;SDS011;3995;50.856;4.404;2024-03-25T12:38:53;7.73;;;2.50;;
7899;SDS011;3995;50.856;4.404;2024-03-25T12:41:21;9.60;;;2.23;;
7899;SDS011;3995;50.856;4.404;2024-03-25T12:43:49;4.30;;;1.93;;
7899;SDS011;3995;50.856;4.404;2024-03-25T12:46:15;3.07;;;1.63;;
7899;SDS011;3995;50.856;4.404;2024-03-25T12:48:42;3.00;;;1.50;;
7899;SDS011;3995;50.856;4.404;2024-03-25T12:51:11;5.60;;;1.87;;
7899;SDS011;3995;50.856;4.404;2024-03-25T12:53:38;8.33;;;1.87;;
7899;SDS011;3995;50.856;4.404;2024-03-25T12:56:04;9.30;;;1.70;;
7899;SDS011;3995;50.856;4.404;2024-03-25T12:58:32;2.33;;;1.60;;
7899;SDS011;3995;50.856;4.404;2024-03-25T13:00:58;2.30;;;1.70;;
7899;SDS011;3995;50.856;4.404;2024-03-25T13:03:25;5.47;;;2.20;;
7899;SDS011;3995;50.856;4.404;2024-03-25T13:05:51;4.30;;;1.57;;
7899;SDS011;3995;50.856;4.404;2024-03-25T13:08:17;3.20;;;1.40;;
7899;SDS011;3995;50.856;4.404;2024-03-25T13:10:42;3.40;;;1.60;;
7899;SDS011;3995;50.856;4.404;2024-03-25T13:13:09;3.10;;;1.43;;
7899;SDS011;3995;50.856;4.404;2024-03-25T13:15:36;3.87;;;1.53;;
7899;SDS011;3995;50.856;4.404;2024-03-25T13:18:02;2.20;;;1.50;;
7899;SDS011;3995;50.856;4.404;2024-03-25T13:20:28;7.60;;;1.60;;
7899;SDS011;3995;50.856;4.404;2024-03-25T13:22:55;4.73;;;1.60;;
7899;SDS011;3995;50.856;4.404;2024-03-25T13:25:21;4.53;;;1.77;;
7899;SDS011;3995;50.856;4.404;2024-03-25T13:27:47;5.80;;;2.43;;
7899;SDS011;3995;50.856;4.404;2024-03-25T13:30:13;4.00;;;1.93;;
7899;SDS011;3995;50.856;4.404;2024-03-25T13:32:40;3.30;;;1.53;;
7899;SDS011;3995;50.856;4.404;2024-03-25T13:35:06;6.03;;;1.83;;
7899;SDS011;3995;50.856;4.404;2024-03-25T13:37:32;3.00;;;1.50;;
7899;SDS011;3995;50.856;4.404;2024-03-25T13:39:58;3.60;;;1.83;;
7899;SDS011;3995;50.856;4.404;2024-03-25T13:42:24;5.10;;;2.17;;
7899;SDS011;3995;50.856;4.404;2024-03-25T13:44:50;5.00;;;1.43;;
7899;SDS011;3995;50.856;4.404;2024-03-25T13:47:16;3.50;;;1.80;;
7899;SDS011;3995;50.856;4.404;2024-03-25T13:49:44;3.03;;;1.70;;
7899;SDS011;3995;50.856;4.404;2024-03-25T13:52:09;4.00;;;1.60;;
7899;SDS011;3995;50.856;4.404;2024-03-25T13:54:35;3.37;;;1.67;;
7899;SDS011;3995;50.856;4.404;2024-03-25T13:57:01;3.70;;;1.70;;
7899;SDS011;3995;50.856;4.404;2024-03-25T13:59:28;3.77;;;1.80;;
7899;SDS011;3995;50.856;4.404;2024-03-25T14:01:54;9.60;;;1.80;;
7899;SDS011;3995;50.856;4.404;2024-03-25T14:04:20;2.63;;;1.57;;
7899;SDS011;3995;50.856;4.404;2024-03-25T14:06:47;2.93;;;1.80;;
7899;SDS011;3995;50.856;4.404;2024-03-25T14:09:22;5.67;;;1.63;;
7899;SDS011;3995;50.856;4.404;2024-03-25T14:11:49;3.60;;;1.63;;
7899;SDS011;3995;50.856;4.404;2024-03-25T14:14:15;3.00;;;1.57;;
7899;SDS011;3995;50.856;4.404;2024-03-25T14:16:41;5.10;;;1.60;;
7899;SDS011;3995;50.856;4.404;2024-03-25T14:19:07;3.67;;;1.83;;
7899;SDS011;3995;50.856;4.404;2024-03-25T14:21:33;4.43;;;1.40;;
7899;SDS011;3995;50.856;4.404;2024-03-25T14:24:01;4.47;;;1.73;;
7899;SDS011;3995;50.856;4.404;2024-03-25T14:26:27;4.10;;;2.03;;
7899;SDS011;3995;50.856;4.404;2024-03-25T14:28:53;5.10;;;1.80;;
7899;SDS011;3995;50.856;4.404;2024-03-25T14:31:19;8.23;;;1.80;;
7899;SDS011;3995;50.856;4.404;2024-03-25T14:33:45;4.10;;;2.07;;
7899;SDS011;3995;50.856;4.404;2024-03-25T14:36:11;5.90;;;2.30;;
7899;SDS011;3995;50.856;4.404;2024-03-25T14:38:37;4.13;;;1.50;;
7899;SDS011;3995;50.856;4.404;2024-03-25T14:41:05;11.30;;;2.50;;
7899;SDS011;3995;50.856;4.404;2024-03-25T14:43:31;2.80;;;1.77;;
7899;SDS011;3995;50.856;4.404;2024-03-25T14:45:58;3.80;;;1.83;;
7899;SDS011;3995;50.856;4.404;2024-03-25T14:48:24;8.63;;;2.20;;
7899;SDS011;3995;50.856;4.404;2024-03-25T14:50:50;4.10;;;1.40;;
7899;SDS011;3995;50.856;4.404;2024-03-25T14:53:16;10.97;;;2.63;;
7899;SDS011;3995;50.856;4.404;2024-03-25T14:55:42;3.30;;;1.73;;
7899;SDS011;3995;50.856;4.404;2024-03-25T14:58:10;7.40;;;1.67;;
7899;SDS011;3995;50.856;4.404;2024-03-25T15:00:36;8.70;;;2.17;;
7899;SDS011;3995;50.856;4.404;2024-03-25T15:03:02;5.00;;;1.97;;
7899;SDS011;3995;50.856;4.404;2024-03-25T15:05:29;7.67;;;2.00;;